createdAt,value
2018-01-15T00:00:55.464Z,84.56
2018-01-15T00:01:55.378Z,84.38
2018-01-15T00:02:55.292Z,84.28
2018-01-15T00:03:55.206Z,84.38
2018-01-15T00:04:55.121Z,84.09
2018-01-15T00:05:55.040Z,84.47
2018-01-15T00:06:54.951Z,84.85
2018-01-15T00:07:54.864Z,84.94
2018-01-15T00:08:54.779Z,84.56
2018-01-15T00:09:54.693Z,83.90
2018-01-15T00:10:54.609Z,84.94
2018-01-15T00:11:54.522Z,84.56
2018-01-15T00:12:54.436Z,84.38
2018-01-15T00:13:54.352Z,84.28
2018-01-15T00:14:54.267Z,84.75
2018-01-15T00:15:54.179Z,84.47
2018-01-15T00:16:54.097Z,84.00
2018-01-15T00:17:54.011Z,84.38
2018-01-15T00:18:53.925Z,84.47
2018-01-15T00:19:53.838Z,85.23
2018-01-15T00:20:53.760Z,85.61
2018-01-15T00:21:53.666Z,84.94
2018-01-15T00:22:53.582Z,84.66
2018-01-15T00:23:53.496Z,85.51
2018-01-15T00:24:53.412Z,85.04
2018-01-15T00:25:53.325Z,85.13
2018-01-15T00:26:53.250Z,85.42
2018-01-15T00:27:53.156Z,85.32
2018-01-15T00:28:53.070Z,84.66
2018-01-15T00:29:52.982Z,84.56
2018-01-15T00:30:52.899Z,84.47
2018-01-15T00:31:52.810Z,84.66
2018-01-15T00:32:52.726Z,85.04
2018-01-15T00:33:52.641Z,85.61
2018-01-15T00:34:52.554Z,85.13
2018-01-15T00:35:52.468Z,84.75
2018-01-15T00:36:52.387Z,85.04
2018-01-15T00:37:52.298Z,85.23
2018-01-15T00:38:52.213Z,84.85
2018-01-15T00:39:52.127Z,84.75
2018-01-15T00:40:52.043Z,84.28
2018-01-15T00:41:51.956Z,84.28
2018-01-15T00:42:51.870Z,84.66
2018-01-15T00:43:51.783Z,84.38
2018-01-15T00:44:51.700Z,84.56
2018-01-15T00:45:51.615Z,84.28
2018-01-15T00:46:51.528Z,84.47
2018-01-15T00:47:51.446Z,85.04
2018-01-15T00:48:51.359Z,84.75
2018-01-15T00:49:51.270Z,84.56
2018-01-15T00:50:51.187Z,84.75
2018-01-15T00:51:51.097Z,84.85
2018-01-15T00:52:51.014Z,85.13
2018-01-15T00:53:50.927Z,84.56
2018-01-15T00:54:50.844Z,84.56
2018-01-15T00:55:50.756Z,84.66
2018-01-15T00:56:50.672Z,84.75
2018-01-15T00:57:50.587Z,84.94
2018-01-15T00:58:50.501Z,84.38
2018-01-15T00:59:50.416Z,84.56
2018-01-15T01:00:50.329Z,84.47
2018-01-15T01:01:50.246Z,84.38
2018-01-15T01:02:50.159Z,85.13
2018-01-15T01:03:50.070Z,84.85
2018-01-15T01:04:49.990Z,84.56
2018-01-15T01:05:49.922Z,85.04
2018-01-15T01:06:49.816Z,84.85
2018-01-15T01:07:49.731Z,84.75
2018-01-15T01:08:49.647Z,84.75
2018-01-15T01:09:49.561Z,85.04
2018-01-15T01:10:49.476Z,85.04
2018-01-15T01:11:49.389Z,84.94
2018-01-15T01:12:49.301Z,85.04
2018-01-15T01:13:49.219Z,84.94
2018-01-15T01:14:49.137Z,85.23
2018-01-15T01:15:49.046Z,84.94
2018-01-15T01:16:48.960Z,85.23
2018-01-15T01:17:48.882Z,85.32
2018-01-15T01:18:48.799Z,85.23
2018-01-15T01:19:48.711Z,85.13
2018-01-15T01:20:48.617Z,85.23
2018-01-15T01:21:48.535Z,84.94
2018-01-15T01:22:48.447Z,84.85
2018-01-15T01:23:48.361Z,84.85
2018-01-15T01:24:48.277Z,84.75
2018-01-15T01:25:48.192Z,84.66
2018-01-15T01:26:48.106Z,85.04
2018-01-15T01:27:48.029Z,85.32
2018-01-15T01:28:47.934Z,85.32
2018-01-15T01:29:47.848Z,84.66
2018-01-15T01:30:47.769Z,84.85
2018-01-15T01:31:47.677Z,84.94
2018-01-15T01:32:47.592Z,84.56
2018-01-15T01:33:47.508Z,84.47
2018-01-15T01:34:47.422Z,84.47
2018-01-15T01:35:47.338Z,84.85
2018-01-15T01:36:47.250Z,84.94
2018-01-15T01:37:47.165Z,85.42
2018-01-15T01:38:47.080Z,85.42
2018-01-15T01:39:46.994Z,85.61
2018-01-15T01:40:46.910Z,85.61
2018-01-15T01:41:46.823Z,85.42
2018-01-15T01:42:46.738Z,85.42
2018-01-15T01:43:46.653Z,85.42
2018-01-15T01:44:46.565Z,85.51
2018-01-15T01:45:46.482Z,85.42
2018-01-15T01:46:46.398Z,85.51
2018-01-15T01:47:46.309Z,86.08
2018-01-15T01:48:46.230Z,86.08
2018-01-15T01:49:46.141Z,85.32
2018-01-15T01:50:46.054Z,85.99
2018-01-15T01:51:45.967Z,86.18
2018-01-15T01:52:45.883Z,85.99
2018-01-15T01:53:45.797Z,85.70
2018-01-15T01:54:45.711Z,85.80
2018-01-15T01:55:45.625Z,85.99
2018-01-15T01:56:45.542Z,85.89
2018-01-15T01:57:45.455Z,86.08
2018-01-15T01:58:45.373Z,86.08
2018-01-15T01:59:45.284Z,86.08
2018-01-15T02:00:45.198Z,86.08
2018-01-15T02:01:45.113Z,86.08
2018-01-15T02:02:45.026Z,86.08
2018-01-15T02:03:44.941Z,86.46
2018-01-15T02:04:44.858Z,86.27
2018-01-15T02:05:44.772Z,85.80
2018-01-15T02:06:44.686Z,85.80
2018-01-15T02:07:44.599Z,85.80
2018-01-15T02:08:44.513Z,86.08
2018-01-15T02:09:44.431Z,85.80
2018-01-15T02:10:44.341Z,85.80
2018-01-15T02:11:44.256Z,85.99
2018-01-15T02:12:44.169Z,86.65
2018-01-15T02:13:44.085Z,86.08
2018-01-15T02:14:44.001Z,86.18
2018-01-15T02:15:43.918Z,86.04
2018-01-15T02:16:43.829Z,85.85
2018-01-15T02:17:43.749Z,85.94
2018-01-15T02:18:43.672Z,86.04
2018-01-15T02:19:43.570Z,85.75
2018-01-15T02:20:43.487Z,86.36
2018-01-15T02:21:43.400Z,86.51
2018-01-15T02:22:43.315Z,86.04
2018-01-15T02:23:43.230Z,86.08
2018-01-15T02:24:43.140Z,86.13
2018-01-15T02:25:43.058Z,86.13
2018-01-15T02:26:42.970Z,86.04
2018-01-15T02:27:42.885Z,86.13
2018-01-15T02:28:42.800Z,86.22
2018-01-15T02:29:42.713Z,86.04
2018-01-15T02:30:42.626Z,86.32
2018-01-15T02:31:42.554Z,86.22
2018-01-15T02:32:42.454Z,85.85
2018-01-15T02:33:42.372Z,85.94
2018-01-15T02:34:42.282Z,86.04
2018-01-15T02:35:42.220Z,86.51
2018-01-15T02:36:42.113Z,86.60
2018-01-15T02:37:42.024Z,86.22
2018-01-15T02:38:41.941Z,87.08
2018-01-15T02:39:41.855Z,86.32
2018-01-15T02:40:41.767Z,86.79
2018-01-15T02:41:41.683Z,86.79
2018-01-15T02:42:41.596Z,86.51
2018-01-15T02:43:41.510Z,86.70
2018-01-15T02:44:41.429Z,86.51
2018-01-15T02:45:41.340Z,86.51
2018-01-15T02:46:41.254Z,86.22
2018-01-15T02:47:41.165Z,86.70
2018-01-15T02:48:41.094Z,86.79
2018-01-15T02:49:40.997Z,86.51
2018-01-15T02:50:40.908Z,86.89
2018-01-15T02:51:40.822Z,86.98
2018-01-15T02:52:40.740Z,86.89
2018-01-15T02:53:40.650Z,87.17
2018-01-15T02:54:40.569Z,86.60
2018-01-15T02:55:40.478Z,87.17
2018-01-15T02:56:40.391Z,87.46
2018-01-15T02:57:40.306Z,87.36
2018-01-15T02:58:40.219Z,87.84
2018-01-15T02:59:40.132Z,87.46
2018-01-15T03:00:40.048Z,87.36
2018-01-15T03:01:39.961Z,87.17
2018-01-15T03:02:39.877Z,87.17
2018-01-15T03:03:39.789Z,87.46
2018-01-15T03:04:39.703Z,87.17
2018-01-15T03:05:39.622Z,87.36
2018-01-15T03:06:39.531Z,87.17
2018-01-15T03:07:39.446Z,86.98
2018-01-15T03:08:39.361Z,86.98
2018-01-15T03:09:39.274Z,87.36
2018-01-15T03:10:39.189Z,87.46
2018-01-15T03:11:39.101Z,87.36
2018-01-15T03:12:39.019Z,87.46
2018-01-15T03:13:38.929Z,87.17
2018-01-15T03:14:38.851Z,87.55
2018-01-15T03:15:38.761Z,87.84
2018-01-15T03:16:38.672Z,87.84
2018-01-15T03:17:38.587Z,87.93
2018-01-15T03:18:38.501Z,87.46
2018-01-15T03:19:38.413Z,87.74
2018-01-15T03:20:38.330Z,87.93
2018-01-15T03:21:38.243Z,87.46
2018-01-15T03:22:38.157Z,88.31
2018-01-15T03:23:38.069Z,88.78
2018-01-15T03:24:37.984Z,88.68
2018-01-15T03:25:37.899Z,89.25
2018-01-15T03:26:37.846Z,89.25
2018-01-15T03:27:37.727Z,89.50
2018-01-15T03:28:37.641Z,90.06
2018-01-15T03:29:37.552Z,89.78
2018-01-15T03:30:37.468Z,90.06
2018-01-15T03:31:37.383Z,90.53
2018-01-15T03:32:37.306Z,90.44
2018-01-15T03:33:37.214Z,90.44
2018-01-15T03:34:37.124Z,91.01
2018-01-15T03:35:37.036Z,91.10
2018-01-15T03:36:36.951Z,91.67
2018-01-15T03:37:36.864Z,91.58
2018-01-15T03:38:36.777Z,90.72
2018-01-15T03:39:36.693Z,90.91
2018-01-15T03:40:36.604Z,90.63
2018-01-15T03:41:36.519Z,91.20
2018-01-15T03:42:36.434Z,91.01
2018-01-15T03:43:36.345Z,91.01
2018-01-15T03:44:36.262Z,90.82
2018-01-15T03:45:36.178Z,90.91
2018-01-15T03:46:36.087Z,90.63
2018-01-15T03:47:35.998Z,91.01
2018-01-15T03:48:35.917Z,90.82
2018-01-15T03:49:35.830Z,90.82
2018-01-15T03:50:35.743Z,90.25
2018-01-15T03:51:35.654Z,90.44
2018-01-15T03:52:35.569Z,90.72
2018-01-15T03:53:35.484Z,90.82
2018-01-15T03:54:35.396Z,90.63
2018-01-15T03:55:35.311Z,90.53
2018-01-15T03:56:35.229Z,90.72
2018-01-15T03:57:35.136Z,90.72
2018-01-15T03:58:35.052Z,91.20
2018-01-15T03:59:34.966Z,91.01
2018-01-15T04:00:34.877Z,90.91
2018-01-15T04:01:34.793Z,90.72
2018-01-15T04:02:34.711Z,90.82
2018-01-15T04:03:34.625Z,91.01
2018-01-15T04:04:34.535Z,90.82
2018-01-15T04:05:34.444Z,90.53
2018-01-15T04:06:34.360Z,91.20
2018-01-15T04:07:34.273Z,91.01
2018-01-15T04:08:34.184Z,91.01
2018-01-15T04:09:34.100Z,90.72
2018-01-15T04:10:34.018Z,90.63
2018-01-15T04:11:33.926Z,90.91
2018-01-15T04:12:33.841Z,90.53
2018-01-15T04:13:33.752Z,90.91
2018-01-15T04:14:33.666Z,90.72
2018-01-15T04:15:33.580Z,90.82
2018-01-15T04:16:33.492Z,90.91
2018-01-15T04:17:33.406Z,90.44
2018-01-15T04:18:33.324Z,91.10
2018-01-15T04:19:33.234Z,90.72
2018-01-15T04:20:33.149Z,90.63
2018-01-15T04:21:33.061Z,91.20
2018-01-15T04:22:32.980Z,91.10
2018-01-15T04:23:32.892Z,90.91
2018-01-15T04:24:32.801Z,91.58
2018-01-15T04:25:32.715Z,91.58
2018-01-15T04:26:32.630Z,91.58
2018-01-15T04:27:32.541Z,91.39
2018-01-15T04:28:32.460Z,91.86
2018-01-15T04:29:32.369Z,91.96
2018-01-15T04:30:32.283Z,91.48
2018-01-15T04:31:32.197Z,91.77
2018-01-15T04:32:32.110Z,91.48
2018-01-15T04:33:32.025Z,92.33
2018-01-15T04:34:31.938Z,92.33
2018-01-15T04:35:31.848Z,92.43
2018-01-15T04:36:31.764Z,91.77
2018-01-15T04:37:31.678Z,91.77
2018-01-15T04:38:31.592Z,91.48
2018-01-15T04:39:31.505Z,91.77
2018-01-15T04:40:31.416Z,91.48
2018-01-15T04:41:31.330Z,91.77
2018-01-15T04:42:31.247Z,91.58
2018-01-15T04:43:31.156Z,91.48
2018-01-15T04:44:31.072Z,91.77
2018-01-15T04:45:30.985Z,91.01
2018-01-15T04:46:30.897Z,90.82
2018-01-15T04:47:30.810Z,90.91
2018-01-15T04:48:30.730Z,91.01
2018-01-15T04:49:30.639Z,91.58
2018-01-15T04:50:30.550Z,91.20
2018-01-15T04:51:30.465Z,91.86
2018-01-15T04:52:30.379Z,92.33
2018-01-15T04:53:30.294Z,92.05
2018-01-15T04:54:30.209Z,91.39
2018-01-15T04:55:30.118Z,92.14
2018-01-15T04:56:30.032Z,92.43
2018-01-15T04:57:29.947Z,93.37
2018-01-15T04:58:29.863Z,92.76
2018-01-15T04:59:29.774Z,92.57
2018-01-15T05:00:29.694Z,92.10
2018-01-15T05:01:29.602Z,91.91
2018-01-15T05:02:29.512Z,91.62
2018-01-15T05:03:29.431Z,91.62
2018-01-15T05:04:29.342Z,90.77
2018-01-15T05:05:29.256Z,91.72
2018-01-15T05:06:29.169Z,90.96
2018-01-15T05:07:29.083Z,91.05
2018-01-15T05:08:29.000Z,91.62
2018-01-15T05:09:28.910Z,91.72
2018-01-15T05:10:28.825Z,91.24
2018-01-15T05:11:28.739Z,91.05
2018-01-15T05:12:28.649Z,90.77
2018-01-15T05:13:28.565Z,90.77
2018-01-15T05:14:28.477Z,90.39
2018-01-15T05:15:28.393Z,89.92
2018-01-15T05:16:28.306Z,89.73
2018-01-15T05:17:28.219Z,89.63
2018-01-15T05:18:28.138Z,90.30
2018-01-15T05:19:28.051Z,90.11
2018-01-15T05:20:27.960Z,90.11
2018-01-15T05:21:27.881Z,89.92
2018-01-15T05:22:27.788Z,90.11
2018-01-15T05:23:27.700Z,90.30
2018-01-15T05:24:27.618Z,89.92
2018-01-15T05:25:27.534Z,89.82
2018-01-15T05:26:27.442Z,90.20
2018-01-15T05:27:27.354Z,89.97
2018-01-15T05:28:27.270Z,89.82
2018-01-15T05:29:27.183Z,89.97
2018-01-15T05:30:27.098Z,89.87
2018-01-15T05:31:27.009Z,89.69
2018-01-15T05:32:26.926Z,89.87
2018-01-15T05:33:26.839Z,90.20
2018-01-15T05:34:26.752Z,89.87
2018-01-15T05:35:26.664Z,89.78
2018-01-15T05:36:26.578Z,90.11
2018-01-15T05:37:26.492Z,90.16
2018-01-15T05:38:26.406Z,89.78
2018-01-15T05:39:26.317Z,89.87
2018-01-15T05:40:26.232Z,89.78
2018-01-15T05:41:26.147Z,90.06
2018-01-15T05:42:26.063Z,89.87
2018-01-15T05:43:25.982Z,89.92
2018-01-15T05:44:25.887Z,89.97
2018-01-15T05:45:25.799Z,89.87
2018-01-15T05:46:25.714Z,89.97
2018-01-15T05:47:25.627Z,89.97
2018-01-15T05:48:25.541Z,89.97
2018-01-15T05:49:25.451Z,89.87
2018-01-15T05:50:25.372Z,89.97
2018-01-15T05:51:25.284Z,89.78
2018-01-15T05:52:25.196Z,89.69
2018-01-15T05:53:25.112Z,90.25
2018-01-15T05:54:25.020Z,89.78
2018-01-15T05:55:24.935Z,90.16
2018-01-15T05:56:24.857Z,90.06
2018-01-15T05:57:24.763Z,89.78
2018-01-15T05:58:24.676Z,89.78
2018-01-15T05:59:24.594Z,89.87
2018-01-15T06:00:24.504Z,90.16
2018-01-15T06:01:24.415Z,90.06
2018-01-15T06:02:24.330Z,89.97
2018-01-15T06:03:24.243Z,89.87
2018-01-15T06:04:24.158Z,89.69
2018-01-15T06:05:24.070Z,89.87
2018-01-15T06:06:23.983Z,89.69
2018-01-15T06:07:23.896Z,89.78
2018-01-15T06:08:23.812Z,90.06
2018-01-15T06:09:23.722Z,90.06
2018-01-15T06:10:23.638Z,89.97
2018-01-15T06:11:23.547Z,90.34
2018-01-15T06:12:23.463Z,89.69
2018-01-15T06:13:23.376Z,89.50
2018-01-15T06:14:23.295Z,90.16
2018-01-15T06:15:23.203Z,89.78
2018-01-15T06:16:23.122Z,90.16
2018-01-15T06:17:23.029Z,89.78
2018-01-15T06:18:22.941Z,89.87
2018-01-15T06:19:22.856Z,90.06
2018-01-15T06:20:22.769Z,90.34
2018-01-15T06:21:22.684Z,90.25
2018-01-15T06:22:22.597Z,90.44
2018-01-15T06:23:22.510Z,90.63
2018-01-15T06:24:22.420Z,90.63
2018-01-15T06:25:22.338Z,90.34
2018-01-15T06:26:22.250Z,91.01
2018-01-15T06:27:22.165Z,90.34
2018-01-15T06:28:22.077Z,90.72
2018-01-15T06:29:21.989Z,90.53
2018-01-15T06:30:21.920Z,90.53
2018-01-15T06:31:21.815Z,90.53
2018-01-15T06:32:21.729Z,90.82
2018-01-15T06:33:21.641Z,90.53
2018-01-15T06:34:21.556Z,90.53
2018-01-15T06:35:21.476Z,91.10
2018-01-15T06:36:21.380Z,91.20
2018-01-15T06:37:21.296Z,90.44
2018-01-15T06:38:21.211Z,91.01
2018-01-15T06:39:21.124Z,90.44
2018-01-15T06:40:21.037Z,90.53
2018-01-15T06:41:20.949Z,91.10
2018-01-15T06:42:20.862Z,90.72
2018-01-15T06:43:20.778Z,90.82
2018-01-15T06:44:20.687Z,91.10
2018-01-15T06:45:20.601Z,91.01
2018-01-15T06:46:20.516Z,91.10
2018-01-15T06:47:20.428Z,90.91
2018-01-15T06:48:20.342Z,91.01
2018-01-15T06:49:20.253Z,90.91
2018-01-15T06:50:20.166Z,91.77
2018-01-15T06:51:20.084Z,90.91
2018-01-15T06:52:19.994Z,91.10
2018-01-15T06:53:19.910Z,91.20
2018-01-15T06:54:19.822Z,90.82
2018-01-15T06:55:19.732Z,91.86
2018-01-15T06:56:19.647Z,91.58
2018-01-15T06:57:19.560Z,91.20
2018-01-15T06:58:19.474Z,91.39
2018-01-15T06:59:19.383Z,91.48
2018-01-15T07:00:19.299Z,91.48
2018-01-15T07:01:19.215Z,91.58
2018-01-15T07:02:19.127Z,91.20
2018-01-15T07:03:19.039Z,91.39
2018-01-15T07:04:18.957Z,91.48
2018-01-15T07:05:18.864Z,91.10
2018-01-15T07:06:18.782Z,91.58
2018-01-15T07:07:18.688Z,91.58
2018-01-15T07:08:18.604Z,91.39
2018-01-15T07:09:18.517Z,91.58
2018-01-15T07:10:18.436Z,91.67
2018-01-15T07:11:18.344Z,91.48
2018-01-15T07:12:18.257Z,91.77
2018-01-15T07:13:18.169Z,91.39
2018-01-15T07:14:18.083Z,91.48
2018-01-15T07:15:17.999Z,91.39
2018-01-15T07:16:17.911Z,91.96
2018-01-15T07:17:17.823Z,91.86
2018-01-15T07:18:17.737Z,91.86
2018-01-15T07:19:17.647Z,92.05
2018-01-15T07:20:17.564Z,92.24
2018-01-15T07:21:17.474Z,92.90
2018-01-15T07:22:17.388Z,92.33
2018-01-15T07:23:17.300Z,92.80
2018-01-15T07:24:17.213Z,93.28
2018-01-15T07:25:17.133Z,92.80
2018-01-15T07:26:17.040Z,93.09
2018-01-15T07:27:16.953Z,92.90
2018-01-15T07:28:16.866Z,92.33
2018-01-15T07:29:16.791Z,91.67
2018-01-15T07:30:16.693Z,91.96
2018-01-15T07:31:16.606Z,92.33
2018-01-15T07:32:16.518Z,92.14
2018-01-15T07:33:16.432Z,91.96
2018-01-15T07:34:16.343Z,91.86
2018-01-15T07:35:16.256Z,91.96
2018-01-15T07:36:16.169Z,91.96
2018-01-15T07:37:16.090Z,91.96
2018-01-15T07:38:15.999Z,92.05
2018-01-15T07:39:15.910Z,91.86
2018-01-15T07:40:15.824Z,91.77
2018-01-15T07:41:15.736Z,91.58
2018-01-15T07:42:15.649Z,91.29
2018-01-15T07:43:15.562Z,91.58
2018-01-15T07:44:15.478Z,91.77
2018-01-15T07:45:15.387Z,91.29
2018-01-15T07:46:15.304Z,91.86
2018-01-15T07:47:15.215Z,91.77
2018-01-15T07:48:15.131Z,91.86
2018-01-15T07:49:15.043Z,91.48
2018-01-15T07:50:14.956Z,91.48
2018-01-15T07:51:14.868Z,92.24
2018-01-15T07:52:14.783Z,91.67
2018-01-15T07:53:14.696Z,91.58
2018-01-15T07:54:14.608Z,91.10
2018-01-15T07:55:14.520Z,91.48
2018-01-15T07:56:14.435Z,91.48
2018-01-15T07:57:14.349Z,91.96
2018-01-15T07:58:14.263Z,91.39
2018-01-15T07:59:14.174Z,91.39
2018-01-15T08:00:14.087Z,91.29
2018-01-15T08:01:14.002Z,91.58
2018-01-15T08:02:13.915Z,91.77
2018-01-15T08:03:13.835Z,91.20
2018-01-15T08:04:13.746Z,91.67
2018-01-15T08:05:13.657Z,91.10
2018-01-15T08:06:13.570Z,90.91
2018-01-15T08:07:13.492Z,91.20
2018-01-15T08:08:13.395Z,91.20
2018-01-15T08:09:13.308Z,91.67
2018-01-15T08:10:13.223Z,91.86
2018-01-15T08:11:13.136Z,91.86
2018-01-15T08:12:13.049Z,91.39
2018-01-15T08:13:12.965Z,91.48
2018-01-15T08:14:12.880Z,90.82
2018-01-15T08:15:12.789Z,90.53
2018-01-15T08:16:12.705Z,91.20
2018-01-15T08:17:12.616Z,91.10
2018-01-15T08:18:12.532Z,91.01
2018-01-15T08:19:12.444Z,91.01
2018-01-15T08:20:12.381Z,91.10
2018-01-15T08:21:12.270Z,90.63
2018-01-15T08:22:12.188Z,91.20
2018-01-15T08:23:12.133Z,90.91
2018-01-15T08:24:12.057Z,90.72
2018-01-15T08:25:11.923Z,90.72
2018-01-15T08:26:11.839Z,90.63
2018-01-15T08:27:11.752Z,90.63
2018-01-15T08:28:11.665Z,90.63
2018-01-15T08:29:11.578Z,90.16
2018-01-15T08:30:11.499Z,89.87
2018-01-15T08:31:11.406Z,90.06
2018-01-15T08:32:11.318Z,89.78
2018-01-15T08:33:11.232Z,90.25
2018-01-15T08:34:11.145Z,90.44
2018-01-15T08:35:11.057Z,90.63
2018-01-15T08:36:10.973Z,90.63
2018-01-15T08:37:10.887Z,90.44
2018-01-15T08:38:10.799Z,90.44
2018-01-15T08:39:10.712Z,90.72
2018-01-15T08:40:10.626Z,90.72
2018-01-15T08:41:10.541Z,90.53
2018-01-15T08:42:10.455Z,90.53
2018-01-15T08:43:10.369Z,90.82
2018-01-15T08:44:10.282Z,90.72
2018-01-15T08:45:10.193Z,91.10
2018-01-15T08:46:10.108Z,91.67
2018-01-15T08:47:10.020Z,91.86
2018-01-15T08:48:09.934Z,90.91
2018-01-15T08:49:09.850Z,91.48
2018-01-15T08:50:09.762Z,91.58
2018-01-15T08:51:09.678Z,91.67
2018-01-15T08:52:09.590Z,91.86
2018-01-15T08:53:09.501Z,91.58
2018-01-15T08:54:09.416Z,91.58
2018-01-15T08:55:09.334Z,91.58
2018-01-15T08:56:09.241Z,91.67
2018-01-15T08:57:09.157Z,91.58
2018-01-15T08:58:09.071Z,91.67
2018-01-15T08:59:08.983Z,91.67
2018-01-15T09:00:08.895Z,91.67
2018-01-15T09:01:08.847Z,91.48
2018-01-15T09:02:08.722Z,91.01
2018-01-15T09:03:08.638Z,90.63
2018-01-15T09:04:08.549Z,90.72
2018-01-15T09:05:08.471Z,91.67
2018-01-15T09:06:08.378Z,91.20
2018-01-15T09:07:08.289Z,91.77
2018-01-15T09:08:08.202Z,91.10
2018-01-15T09:09:08.128Z,91.67
2018-01-15T09:10:08.031Z,91.96
2018-01-15T09:11:07.942Z,91.29
2018-01-15T09:12:07.857Z,91.58
2018-01-15T09:13:07.768Z,91.96
2018-01-15T09:14:07.685Z,91.67
2018-01-15T09:15:07.596Z,91.86
2018-01-15T09:16:07.510Z,92.33
2018-01-15T09:17:07.423Z,92.05
2018-01-15T09:18:07.351Z,92.33
2018-01-15T09:19:07.248Z,91.77
2018-01-15T09:20:07.165Z,92.14
2018-01-15T09:21:07.077Z,91.96
2018-01-15T09:22:06.993Z,92.33
2018-01-15T09:23:06.902Z,91.86
2018-01-15T09:24:06.821Z,91.77
2018-01-15T09:25:06.733Z,91.96
2018-01-15T09:26:06.644Z,91.86
2018-01-15T09:27:06.558Z,92.05
2018-01-15T09:28:06.484Z,91.86
2018-01-15T09:29:06.386Z,91.58
2018-01-15T09:30:06.300Z,91.58
2018-01-15T09:31:06.211Z,91.48
2018-01-15T09:32:06.123Z,91.58
2018-01-15T09:33:06.037Z,91.58
2018-01-15T09:34:05.957Z,91.58
2018-01-15T09:35:05.869Z,91.43
2018-01-15T09:36:05.779Z,91.77
2018-01-15T09:37:05.693Z,90.91
2018-01-15T09:38:05.604Z,90.77
2018-01-15T09:39:05.523Z,90.77
2018-01-15T09:40:05.435Z,91.24
2018-01-15T09:41:05.344Z,90.96
2018-01-15T09:42:05.261Z,91.24
2018-01-15T09:43:05.172Z,91.15
2018-01-15T09:44:05.089Z,91.15
2018-01-15T09:45:05.000Z,91.15
2018-01-15T09:46:04.913Z,91.24
2018-01-15T09:47:04.828Z,90.96
2018-01-15T09:48:04.743Z,90.48
2018-01-15T09:49:04.653Z,90.67
2018-01-15T09:50:04.568Z,90.86
2018-01-15T09:51:04.480Z,90.58
2018-01-15T09:52:04.396Z,90.67
2018-01-15T09:53:04.309Z,90.86
2018-01-15T09:54:04.223Z,91.05
2018-01-15T09:55:04.135Z,90.30
2018-01-15T09:56:04.050Z,90.48
2018-01-15T09:57:03.965Z,90.77
2018-01-15T09:58:03.879Z,90.77
2018-01-15T09:59:03.823Z,90.30
2018-01-15T10:00:03.704Z,90.11
2018-01-15T10:01:03.622Z,90.30
2018-01-15T10:02:03.533Z,90.77
2018-01-15T10:03:03.446Z,90.39
2018-01-15T10:04:03.362Z,90.39
2018-01-15T10:05:03.277Z,90.39
2018-01-15T10:06:03.189Z,90.96
2018-01-15T10:07:03.106Z,90.30
2018-01-15T10:08:03.018Z,90.67
2018-01-15T10:09:02.933Z,91.05
2018-01-15T10:10:02.846Z,90.58
2018-01-15T10:11:02.756Z,91.15
2018-01-15T10:12:02.670Z,90.77
2018-01-15T10:13:02.585Z,90.96
2018-01-15T10:14:02.500Z,91.81
2018-01-15T10:15:02.412Z,91.72
2018-01-15T10:16:02.324Z,90.86
2018-01-15T10:17:02.251Z,90.77
2018-01-15T10:18:02.154Z,90.86
2018-01-15T10:19:02.068Z,90.11
2018-01-15T10:20:01.996Z,89.92
2018-01-15T10:21:01.899Z,89.82
2018-01-15T10:22:01.808Z,90.01
2018-01-15T10:23:01.723Z,90.11
2018-01-15T10:24:01.637Z,89.82
2018-01-15T10:25:01.551Z,90.39
2018-01-15T10:26:01.464Z,90.67
2018-01-15T10:27:01.380Z,90.48
2018-01-15T10:28:01.292Z,90.86
2018-01-15T10:29:01.206Z,90.67
2018-01-15T10:30:01.121Z,90.30
2018-01-15T10:31:01.034Z,90.67
2018-01-15T10:32:00.949Z,90.30
2018-01-15T10:33:00.863Z,90.01
2018-01-15T10:34:00.827Z,89.82
2018-01-15T10:35:00.690Z,90.11
2018-01-15T10:36:00.604Z,89.92
2018-01-15T10:37:00.522Z,90.20
2018-01-15T10:38:00.431Z,89.63
2018-01-15T10:39:00.350Z,88.97
2018-01-15T10:40:00.262Z,89.06
2018-01-15T10:41:00.182Z,89.35
2018-01-15T10:42:00.090Z,89.44
2018-01-15T10:43:00.005Z,89.73
2018-01-15T10:43:59.917Z,90.39
2018-01-15T10:44:59.830Z,89.73
2018-01-15T10:45:59.745Z,89.54
2018-01-15T10:46:59.659Z,89.54
2018-01-15T10:47:59.585Z,89.35
2018-01-15T10:48:59.492Z,89.44
2018-01-15T10:49:59.411Z,89.44
2018-01-15T10:50:59.315Z,89.54
2018-01-15T10:51:59.229Z,90.11
2018-01-15T10:52:59.142Z,90.30
2018-01-15T10:53:59.058Z,89.54
2018-01-15T10:54:58.972Z,90.20
2018-01-15T10:55:58.885Z,90.20
2018-01-15T10:56:58.801Z,89.82
2018-01-15T10:57:58.714Z,89.92
2018-01-15T10:58:58.626Z,89.73
2018-01-15T10:59:58.549Z,90.48
2018-01-15T11:00:58.454Z,90.67
2018-01-15T11:01:58.370Z,90.96
2018-01-15T11:02:58.283Z,90.77
2018-01-15T11:03:58.198Z,90.48
2018-01-15T11:04:58.112Z,90.48
2018-01-15T11:05:58.024Z,90.39
2018-01-15T11:06:57.936Z,90.30
2018-01-15T11:07:57.853Z,90.86
2018-01-15T11:08:57.768Z,90.67
2018-01-15T11:09:57.682Z,90.30
2018-01-15T11:10:57.593Z,90.77
2018-01-15T11:11:57.511Z,89.92
2018-01-15T11:12:57.429Z,90.48
2018-01-15T11:13:57.337Z,90.30
2018-01-15T11:14:57.251Z,90.30
2018-01-15T11:15:57.168Z,90.67
2018-01-15T11:16:57.082Z,90.77
2018-01-15T11:17:56.991Z,90.86
2018-01-15T11:18:56.906Z,90.77
2018-01-15T11:19:56.820Z,90.77
2018-01-15T11:20:56.734Z,90.67
2018-01-15T11:21:56.649Z,90.67
2018-01-15T11:22:56.561Z,90.77
2018-01-15T11:23:56.477Z,90.39
2018-01-15T11:24:56.389Z,90.11
2018-01-15T11:25:56.304Z,90.30
2018-01-15T11:26:56.216Z,91.05
2018-01-15T11:27:56.132Z,90.77
2018-01-15T11:28:56.046Z,91.05
2018-01-15T11:29:55.960Z,90.58
2018-01-15T11:30:55.873Z,90.67
2018-01-15T11:31:55.789Z,90.67
2018-01-15T11:32:55.703Z,90.48
2018-01-15T11:33:55.616Z,90.86
2018-01-15T11:34:55.531Z,90.67
2018-01-15T11:35:55.445Z,90.77
2018-01-15T11:36:55.359Z,90.86
2018-01-15T11:37:55.271Z,90.48
2018-01-15T11:38:55.187Z,91.15
2018-01-15T11:39:55.099Z,91.05
2018-01-15T11:40:55.014Z,91.53
2018-01-15T11:41:54.926Z,91.53
2018-01-15T11:42:54.840Z,91.43
2018-01-15T11:43:54.753Z,90.96
2018-01-15T11:44:54.672Z,90.86
2018-01-15T11:45:54.588Z,91.05
2018-01-15T11:46:54.496Z,90.67
2018-01-15T11:47:54.411Z,90.96
2018-01-15T11:48:54.325Z,90.58
2018-01-15T11:49:54.238Z,90.86
2018-01-15T11:50:54.153Z,90.58
2018-01-15T11:51:54.065Z,90.86
2018-01-15T11:52:54.009Z,91.05
2018-01-15T11:53:53.895Z,91.91
2018-01-15T11:54:53.808Z,90.96
2018-01-15T11:55:53.721Z,91.05
2018-01-15T11:56:53.636Z,90.77
2018-01-15T11:57:53.550Z,91.81
2018-01-15T11:58:53.461Z,91.53
2018-01-15T11:59:53.377Z,91.72
2018-01-15T12:00:53.306Z,90.67
2018-01-15T12:01:53.204Z,91.15
2018-01-15T12:02:53.118Z,90.58
2018-01-15T12:03:53.033Z,90.58
2018-01-15T12:04:52.945Z,90.67
2018-01-15T12:05:52.863Z,91.05
2018-01-15T12:06:52.773Z,90.67
2018-01-15T12:07:52.688Z,91.15
2018-01-15T12:08:52.604Z,91.05
2018-01-15T12:09:52.515Z,91.05
2018-01-15T12:10:52.430Z,91.62
2018-01-15T12:11:52.361Z,90.96
2018-01-15T12:12:52.258Z,90.48
2018-01-15T12:13:52.171Z,90.39
2018-01-15T12:14:52.084Z,90.48
2018-01-15T12:15:52.000Z,90.67
2018-01-15T12:16:51.915Z,90.67
2018-01-15T12:17:51.829Z,90.48
2018-01-15T12:18:51.743Z,90.58
2018-01-15T12:19:51.656Z,90.86
2018-01-15T12:20:51.570Z,90.58
2018-01-15T12:21:51.484Z,90.48
2018-01-15T12:22:51.398Z,90.77
2018-01-15T12:23:51.312Z,90.30
2018-01-15T12:24:51.230Z,90.48
2018-01-15T12:25:51.142Z,89.82
2018-01-15T12:26:51.053Z,90.30
2018-01-15T12:27:50.971Z,90.48
2018-01-15T12:28:50.885Z,90.67
2018-01-15T12:29:50.797Z,91.05
2018-01-15T12:30:50.709Z,90.86
2018-01-15T12:31:50.624Z,90.77
2018-01-15T12:32:50.540Z,90.77
2018-01-15T12:33:50.453Z,90.48
2018-01-15T12:34:50.366Z,90.77
2018-01-15T12:35:50.280Z,90.67
2018-01-15T12:36:50.195Z,90.67
2018-01-15T12:37:50.109Z,89.92
2018-01-15T12:38:50.024Z,90.30
2018-01-15T12:39:49.936Z,89.63
2018-01-15T12:40:49.852Z,89.54
2018-01-15T12:41:49.765Z,89.49
2018-01-15T12:42:49.678Z,88.35
2018-01-15T12:43:49.592Z,87.40
2018-01-15T12:44:49.507Z,86.74
2018-01-15T12:45:49.421Z,86.22
2018-01-15T12:46:49.336Z,84.36
2018-01-15T12:47:49.250Z,83.36
2018-01-15T12:48:49.165Z,81.62
2018-01-15T12:49:49.080Z,80.62
2018-01-15T12:50:48.995Z,78.38
2018-01-15T12:51:48.910Z,76.95